sensor_id;sensor_type;location;lat;lon;timestamp;pressure;altitude;pressure_sealevel;temperature;humidity
77079;BME280;66004;55.096;38.760;2024-03-29T00:00:25;99600.78;;;6.73;48.93
77079;BME280;66004;55.096;38.760;2024-03-29T00:02:50;99613.31;;;6.84;48.78
77079;BME280;66004;55.096;38.760;2024-03-29T00:05:16;99605.06;;;6.79;48.90
77079;BME280;66004;55.096;38.760;2024-03-29T00:07:41;99611.00;;;6.86;48.67
77079;BME280;66004;55.096;38.760;2024-03-29T00:10:07;99591.56;;;6.81;48.85
77079;BME280;66004;55.096;38.760;2024-03-29T00:12:32;99593.41;;;6.86;48.79
77079;BME280;66004;55.096;38.760;2024-03-29T00:14:58;99587.31;;;6.92;48.55
77079;BME280;66004;55.096;38.760;2024-03-29T00:17:23;99595.38;;;6.94;48.64
77079;BME280;66004;55.096;38.760;2024-03-29T00:19:48;99580.91;;;6.92;48.71
77079;BME280;66004;55.096;38.760;2024-03-29T00:22:14;99585.50;;;6.88;48.79
77079;BME280;66004;55.096;38.760;2024-03-29T00:24:40;99582.22;;;6.94;48.73
77079;BME280;66004;55.096;38.760;2024-03-29T00:27:05;99587.31;;;6.92;48.64
77079;BME280;66004;55.096;38.760;2024-03-29T00:29:31;99563.13;;;6.79;48.51
77079;BME280;66004;55.096;38.760;2024-03-29T00:31:58;99575.31;;;6.92;48.80
77079;BME280;66004;55.096;38.760;2024-03-29T00:34:23;99570.53;;;6.92;48.75
77079;BME280;66004;55.096;38.760;2024-03-29T00:36:49;99559.00;;;6.85;48.98
77079;BME280;66004;55.096;38.760;2024-03-29T00:39:14;99566.59;;;6.93;48.73
77079;BME280;66004;55.096;38.760;2024-03-29T00:41:40;99569.91;;;6.95;48.75
77079;BME280;66004;55.096;38.760;2024-03-29T00:44:05;99545.53;;;6.87;48.66
77079;BME280;66004;55.096;38.760;2024-03-29T00:46:31;99551.94;;;6.96;48.77
77079;BME280;66004;55.096;38.760;2024-03-29T00:48:56;99545.84;;;6.94;48.56
77079;BME280;66004;55.096;38.760;2024-03-29T00:51:22;99529.91;;;6.86;48.71
77079;BME280;66004;55.096;38.760;2024-03-29T00:53:47;99548.50;;;6.99;48.60
77079;BME280;66004;55.096;38.760;2024-03-29T00:56:14;99528.09;;;6.90;48.48
77079;BME280;66004;55.096;38.760;2024-03-29T00:58:40;99527.47;;;6.93;48.67
77079;BME280;66004;55.096;38.760;2024-03-29T01:01:05;99536.34;;;6.95;48.65
77079;BME280;66004;55.096;38.760;2024-03-29T01:03:31;99530.41;;;6.97;48.79
77079;BME280;66004;55.096;38.760;2024-03-29T01:05:57;99510.16;;;6.82;48.66
77079;BME280;66004;55.096;38.760;2024-03-29T01:08:22;99516.59;;;6.92;48.77
77079;BME280;66004;55.096;38.760;2024-03-29T01:10:49;99527.63;;;6.97;48.70
77079;BME280;66004;55.096;38.760;2024-03-29T01:13:14;99528.59;;;7.01;48.80
77079;BME280;66004;55.096;38.760;2024-03-29T01:15:40;99495.19;;;6.87;48.67
77079;BME280;66004;55.096;38.760;2024-03-29T01:18:05;99508.66;;;7.02;48.67
77079;BME280;66004;55.096;38.760;2024-03-29T01:20:31;99483.19;;;6.87;48.60
77079;BME280;66004;55.096;38.760;2024-03-29T01:22:56;99510.66;;;7.02;48.83
77079;BME280;66004;55.096;38.760;2024-03-29T01:25:22;99496.50;;;6.98;48.54
77079;BME280;66004;55.096;38.760;2024-03-29T01:27:49;99499.13;;;7.04;48.75
77079;BME280;66004;55.096;38.760;2024-03-29T01:30:15;99487.63;;;6.96;48.71
77079;BME280;66004;55.096;38.760;2024-03-29T01:32:40;99489.63;;;7.05;48.62
77079;BME280;66004;55.096;38.760;2024-03-29T01:35:06;99494.53;;;7.08;48.63
77079;BME280;66004;55.096;38.760;2024-03-29T01:37:31;99484.03;;;7.05;48.65
77079;BME280;66004;55.096;38.760;2024-03-29T01:39:57;99487.31;;;7.07;48.68
77079;BME280;66004;55.096;38.760;2024-03-29T01:42:22;99490.09;;;7.07;48.54
77079;BME280;66004;55.096;38.760;2024-03-29T01:44:48;99482.84;;;7.06;48.68
77079;BME280;66004;55.096;38.760;2024-03-29T01:47:13;99470.53;;;7.07;48.57
77079;BME280;66004;55.096;38.760;2024-03-29T01:49:39;99465.56;;;7.04;48.65
77079;BME280;66004;55.096;38.760;2024-03-29T01:52:06;99471.81;;;7.00;48.67
77079;BME280;66004;55.096;38.760;2024-03-29T01:54:32;99456.69;;;7.01;48.67
77079;BME280;66004;55.096;38.760;2024-03-29T01:56:57;99459.34;;;7.07;48.67
77079;BME280;66004;55.096;38.760;2024-03-29T01:59:24;99456.06;;;7.05;48.92
77079;BME280;66004;55.096;38.760;2024-03-29T02:01:51;99446.81;;;7.04;48.71
77079;BME280;66004;55.096;38.760;2024-03-29T02:04:16;99432.66;;;7.00;48.49
77079;BME280;66004;55.096;38.760;2024-03-29T02:06:42;99435.94;;;7.02;48.66
77079;BME280;66004;55.096;38.760;2024-03-29T02:09:08;99430.34;;;7.02;48.71
77079;BME280;66004;55.096;38.760;2024-03-29T02:11:34;99436.63;;;6.99;48.73
77079;BME280;66004;55.096;38.760;2024-03-29T02:14:00;99419.53;;;6.92;48.78
77079;BME280;66004;55.096;38.760;2024-03-29T02:16:26;99421.19;;;6.93;48.82
77079;BME280;66004;55.096;38.760;2024-03-29T02:18:52;99431.84;;;7.00;48.68
77079;BME280;66004;55.096;38.760;2024-03-29T02:21:17;99417.53;;;7.01;48.68
77079;BME280;66004;55.096;38.760;2024-03-29T02:23:47;99420.66;;;7.00;48.73
77079;BME280;66004;55.096;38.760;2024-03-29T02:26:13;99429.72;;;7.06;48.64
77079;BME280;66004;55.096;38.760;2024-03-29T02:28:38;99415.88;;;7.00;48.59
77079;BME280;66004;55.096;38.760;2024-03-29T02:31:04;99414.59;;;7.07;48.67
77079;BME280;66004;55.096;38.760;2024-03-29T02:33:30;99401.56;;;7.02;48.75
77079;BME280;66004;55.096;38.760;2024-03-29T02:35:55;99414.09;;;7.05;48.68
77079;BME280;66004;55.096;38.760;2024-03-29T02:38:21;99411.31;;;7.05;48.74
77079;BME280;66004;55.096;38.760;2024-03-29T02:40:46;99394.69;;;6.91;48.75
77079;BME280;66004;55.096;38.760;2024-03-29T02:43:12;99415.41;;;7.07;48.60
77079;BME280;66004;55.096;38.760;2024-03-29T02:45:37;99414.41;;;7.03;48.71
77079;BME280;66004;55.096;38.760;2024-03-29T02:48:03;99420.19;;;7.07;48.47
77079;BME280;66004;55.096;38.760;2024-03-29T02:50:28;99411.31;;;7.05;48.55
77079;BME280;66004;55.096;38.760;2024-03-29T02:52:54;99411.47;;;6.99;48.59
77079;BME280;66004;55.096;38.760;2024-03-29T02:55:19;99417.72;;;7.05;48.58
77079;BME280;66004;55.096;38.760;2024-03-29T02:57:45;99412.59;;;6.98;48.45
77079;BME280;66004;55.096;38.760;2024-03-29T03:00:10;99413.41;;;7.08;48.36
77079;BME280;66004;55.096;38.760;2024-03-29T03:02:39;99400.75;;;7.01;48.45
77079;BME280;66004;55.096;38.760;2024-03-29T03:05:06;99409.81;;;7.07;48.50
77079;BME280;66004;55.096;38.760;2024-03-29T03:07:31;99391.41;;;6.97;48.40
77079;BME280;66004;55.096;38.760;2024-03-29T03:10:15;99395.34;;;7.05;48.45
77079;BME280;66004;55.096;38.760;2024-03-29T03:12:59;99397.81;;;7.07;48.43
77079;BME280;66004;55.096;38.760;2024-03-29T03:15:25;99398.78;;;7.11;48.44
77079;BME280;66004;55.096;38.760;2024-03-29T03:17:50;99392.38;;;7.10;48.21
77079;BME280;66004;55.096;38.760;2024-03-29T03:20:16;99386.63;;;7.07;48.36
77079;BME280;66004;55.096;38.760;2024-03-29T03:22:42;99379.72;;;6.95;48.47
77079;BME280;66004;55.096;38.760;2024-03-29T03:25:08;99375.28;;;6.94;48.51
77079;BME280;66004;55.096;38.760;2024-03-29T03:27:33;99377.41;;;6.97;48.54
77079;BME280;66004;55.096;38.760;2024-03-29T03:29:59;99371.63;;;7.02;48.50
77079;BME280;66004;55.096;38.760;2024-03-29T03:32:24;99364.91;;;7.04;48.51
77079;BME280;66004;55.096;38.760;2024-03-29T03:34:50;99372.16;;;7.05;48.33
77079;BME280;66004;55.096;38.760;2024-03-29T03:37:17;99373.13;;;7.09;48.44
77079;BME280;66004;55.096;38.760;2024-03-29T03:39:42;99375.59;;;7.10;48.36
77079;BME280;66004;55.096;38.760;2024-03-29T03:42:08;99365.69;;;7.13;48.30
77079;BME280;66004;55.096;38.760;2024-03-29T03:44:33;99362.09;;;7.04;48.40
77079;BME280;66004;55.096;38.760;2024-03-29T03:46:58;99367.53;;;7.09;48.29
77079;BME280;66004;55.096;38.760;2024-03-29T03:49:24;99371.59;;;7.20;48.25
77079;BME280;66004;55.096;38.760;2024-03-29T03:51:49;99356.91;;;7.23;48.12
77079;BME280;66004;55.096;38.760;2024-03-29T03:54:15;99360.19;;;7.25;48.01
77079;BME280;66004;55.096;38.760;2024-03-29T03:56:40;99359.06;;;7.26;47.99
77079;BME280;66004;55.096;38.760;2024-03-29T03:59:06;99366.50;;;7.22;48.03
77079;BME280;66004;55.096;38.760;2024-03-29T04:01:32;99358.44;;;7.20;48.10
77079;BME280;66004;55.096;38.760;2024-03-29T04:03:57;99348.03;;;7.21;47.89
77079;BME280;66004;55.096;38.760;2024-03-29T04:06:22;99349.22;;;7.20;47.93
77079;BME280;66004;55.096;38.760;2024-03-29T04:08:48;99349.00;;;7.25;48.12
77079;BME280;66004;55.096;38.760;2024-03-29T04:11:13;99332.22;;;7.25;47.86
77079;BME280;66004;55.096;38.760;2024-03-29T04:13:39;99335.97;;;7.38;47.69
77079;BME280;66004;55.096;38.760;2024-03-29T04:16:06;99327.38;;;7.43;47.61
77079;BME280;66004;55.096;38.760;2024-03-29T04:18:33;99340.66;;;7.55;47.57
77079;BME280;66004;55.096;38.760;2024-03-29T04:20:59;99327.84;;;7.54;47.56
77079;BME280;66004;55.096;38.760;2024-03-29T04:23:25;99316.00;;;7.48;47.64
77079;BME280;66004;55.096;38.760;2024-03-29T04:25:54;99322.91;;;7.51;47.52
77079;BME280;66004;55.096;38.760;2024-03-29T04:28:21;99305.97;;;7.47;47.50
77079;BME280;66004;55.096;38.760;2024-03-29T04:30:57;99340.47;;;7.60;47.10
77079;BME280;66004;55.096;38.760;2024-03-29T04:33:23;99314.63;;;7.63;47.06
77079;BME280;66004;55.096;38.760;2024-03-29T04:35:58;99315.44;;;7.85;47.03
77079;BME280;66004;55.096;38.760;2024-03-29T04:38:24;99307.66;;;8.11;46.60
77079;BME280;66004;55.096;38.760;2024-03-29T04:40:51;99300.41;;;8.52;46.01
77079;BME280;66004;55.096;38.760;2024-03-29T04:43:17;99291.88;;;8.94;45.26
77079;BME280;66004;55.096;38.760;2024-03-29T04:45:44;99278.00;;;9.23;44.77
77079;BME280;66004;55.096;38.760;2024-03-29T04:48:10;99291.25;;;9.34;44.54
77079;BME280;66004;55.096;38.760;2024-03-29T04:50:36;99283.50;;;9.19;44.63
77079;BME280;66004;55.096;38.760;2024-03-29T04:53:01;99287.25;;;9.11;44.94
77079;BME280;66004;55.096;38.760;2024-03-29T04:55:26;99277.41;;;9.05;44.39
77079;BME280;66004;55.096;38.760;2024-03-29T04:57:52;99281.25;;;9.00;44.78
77079;BME280;66004;55.096;38.760;2024-03-29T05:00:17;99271.94;;;9.33;44.51
77079;BME280;66004;55.096;38.760;2024-03-29T05:02:43;99271.66;;;9.75;43.16
77079;BME280;66004;55.096;38.760;2024-03-29T05:05:08;99279.00;;;10.04;43.33
77079;BME280;66004;55.096;38.760;2024-03-29T05:07:34;99275.16;;;9.84;43.22
77079;BME280;66004;55.096;38.760;2024-03-29T05:09:59;99262.00;;;9.48;44.02
77079;BME280;66004;55.096;38.760;2024-03-29T05:12:25;99275.09;;;9.31;44.06
77079;BME280;66004;55.096;38.760;2024-03-29T05:14:50;99279.31;;;9.38;44.29
77079;BME280;66004;55.096;38.760;2024-03-29T05:17:16;99268.44;;;9.48;44.08
77079;BME280;66004;55.096;38.760;2024-03-29T05:19:42;99275.78;;;9.53;43.56
77079;BME280;66004;55.096;38.760;2024-03-29T05:22:08;99271.94;;;9.33;44.27
77079;BME280;66004;55.096;38.760;2024-03-29T05:24:33;99262.94;;;9.27;44.15
77079;BME280;66004;55.096;38.760;2024-03-29T05:26:59;99263.75;;;9.28;44.55
77079;BME280;66004;55.096;38.760;2024-03-29T05:29:24;99268.91;;;9.26;44.34
77079;BME280;66004;55.096;38.760;2024-03-29T05:31:49;99259.44;;;9.18;44.57
77079;BME280;66004;55.096;38.760;2024-03-29T05:34:15;99253.69;;;9.14;44.29
77079;BME280;66004;55.096;38.760;2024-03-29T05:36:40;99254.16;;;9.04;44.58
77079;BME280;66004;55.096;38.760;2024-03-29T05:39:06;99264.09;;;9.14;44.34
77079;BME280;66004;55.096;38.760;2024-03-29T05:41:31;99258.47;;;9.26;44.39
77079;BME280;66004;55.096;38.760;2024-03-29T05:43:57;99257.78;;;9.42;44.28
77079;BME280;66004;55.096;38.760;2024-03-29T05:46:23;99262.09;;;9.64;43.97
77079;BME280;66004;55.096;38.760;2024-03-29T05:48:48;99254.44;;;9.89;43.47
77079;BME280;66004;55.096;38.760;2024-03-29T05:51:14;99234.56;;;9.82;43.51
77079;BME280;66004;55.096;38.760;2024-03-29T05:53:40;99248.63;;;9.82;43.46
77079;BME280;66004;55.096;38.760;2024-03-29T05:56:06;99246.53;;;9.66;43.29
77079;BME280;66004;55.096;38.760;2024-03-29T05:58:33;99244.09;;;9.65;43.69
77079;BME280;66004;55.096;38.760;2024-03-29T06:00:59;99242.53;;;9.67;43.67
77079;BME280;66004;55.096;38.760;2024-03-29T06:03:24;99240.88;;;9.79;43.46
77079;BME280;66004;55.096;38.760;2024-03-29T06:05:50;99237.16;;;9.74;43.38
77079;BME280;66004;55.096;38.760;2024-03-29T06:08:15;99235.50;;;9.73;43.08
77079;BME280;66004;55.096;38.760;2024-03-29T06:10:40;99231.09;;;9.60;43.42
77079;BME280;66004;55.096;38.760;2024-03-29T06:13:06;99236.56;;;9.69;43.46
77079;BME280;66004;55.096;38.760;2024-03-29T06:16:04;99250.00;;;9.75;43.29
77079;BME280;66004;55.096;38.760;2024-03-29T06:18:55;99254.44;;;9.89;43.03
77079;BME280;66004;55.096;38.760;2024-03-29T06:21:21;99251.91;;;10.12;42.87
77079;BME280;66004;55.096;38.760;2024-03-29T06:23:46;99233.63;;;10.18;42.97
77079;BME280;66004;55.096;38.760;2024-03-29T06:26:11;99222.78;;;10.04;43.00
77079;BME280;66004;55.096;38.760;2024-03-29T06:28:37;99227.69;;;10.07;42.94
77079;BME280;66004;55.096;38.760;2024-03-29T06:31:02;99233.41;;;10.11;42.62
77079;BME280;66004;55.096;38.760;2024-03-29T06:33:28;99220.44;;;10.06;42.93
77079;BME280;66004;55.096;38.760;2024-03-29T06:35:54;99233.22;;;10.32;42.68
77079;BME280;66004;55.096;38.760;2024-03-29T06:38:20;99233.44;;;10.39;42.38
77079;BME280;66004;55.096;38.760;2024-03-29T06:40:45;99218.66;;;10.42;42.50
77079;BME280;66004;55.096;38.760;2024-03-29T06:43:11;99204.41;;;10.35;42.34
77079;BME280;66004;55.096;38.760;2024-03-29T06:45:41;99207.06;;;10.16;43.15
77079;BME280;66004;55.096;38.760;2024-03-29T06:48:08;99214.09;;;10.09;43.23
77079;BME280;66004;55.096;38.760;2024-03-29T06:50:34;99223.91;;;10.16;43.09
77079;BME280;66004;55.096;38.760;2024-03-29T06:53:00;99224.84;;;10.48;42.96
77079;BME280;66004;55.096;38.760;2024-03-29T06:55:25;99218.06;;;10.65;43.01
77079;BME280;66004;55.096;38.760;2024-03-29T06:57:51;99212.38;;;10.93;42.53
77079;BME280;66004;55.096;38.760;2024-03-29T07:00:16;99221.16;;;10.91;42.50
77079;BME280;66004;55.096;38.760;2024-03-29T07:02:42;99213.63;;;10.96;42.63
77079;BME280;66004;55.096;38.760;2024-03-29T07:05:09;99205.00;;;11.20;42.17
77079;BME280;66004;55.096;38.760;2024-03-29T07:07:37;99196.63;;;11.40;42.07
77079;BME280;66004;55.096;38.760;2024-03-29T07:10:03;99215.13;;;11.57;41.79
77079;BME280;66004;55.096;38.760;2024-03-29T07:12:28;99195.38;;;11.21;42.26
77079;BME280;66004;55.096;38.760;2024-03-29T07:14:54;99207.03;;;11.04;42.23
77079;BME280;66004;55.096;38.760;2024-03-29T07:17:19;99207.75;;;11.01;42.59
77079;BME280;66004;55.096;38.760;2024-03-29T07:19:45;99196.84;;;10.83;42.85
77079;BME280;66004;55.096;38.760;2024-03-29T07:22:10;99208.09;;;10.83;42.67
77079;BME280;66004;55.096;38.760;2024-03-29T07:24:36;99212.69;;;10.60;42.83
77079;BME280;66004;55.096;38.760;2024-03-29T07:27:01;99205.53;;;10.46;43.35
77079;BME280;66004;55.096;38.760;2024-03-29T07:29:27;99198.28;;;10.45;43.13
77079;BME280;66004;55.096;38.760;2024-03-29T07:31:52;99206.06;;;10.36;43.11
77079;BME280;66004;55.096;38.760;2024-03-29T07:34:17;99208.13;;;10.39;43.16
77079;BME280;66004;55.096;38.760;2024-03-29T07:36:43;99195.50;;;10.33;43.08
77079;BME280;66004;55.096;38.760;2024-03-29T07:39:08;99207.34;;;10.26;43.51
77079;BME280;66004;55.096;38.760;2024-03-29T07:41:34;99209.13;;;10.31;43.21
77079;BME280;66004;55.096;38.760;2024-03-29T07:43:59;99212.84;;;10.35;43.30
77079;BME280;66004;55.096;38.760;2024-03-29T07:46:29;99204.91;;;10.25;43.45
77079;BME280;66004;55.096;38.760;2024-03-29T07:48:56;99211.13;;;10.18;43.78
77079;BME280;66004;55.096;38.760;2024-03-29T07:51:21;99211.59;;;10.20;43.56
77079;BME280;66004;55.096;38.760;2024-03-29T07:53:47;99189.28;;;10.11;43.57
77079;BME280;66004;55.096;38.760;2024-03-29T07:56:12;99200.31;;;10.04;43.99
77079;BME280;66004;55.096;38.760;2024-03-29T07:58:38;99189.78;;;10.01;44.17
77079;BME280;66004;55.096;38.760;2024-03-29T08:01:03;99187.94;;;9.93;44.03
77079;BME280;66004;55.096;38.760;2024-03-29T08:03:29;99180.06;;;9.70;44.43
77079;BME280;66004;55.096;38.760;2024-03-29T08:05:57;99189.22;;;9.55;44.45
77079;BME280;66004;55.096;38.760;2024-03-29T08:08:23;99193.44;;;9.49;45.09
77079;BME280;66004;55.096;38.760;2024-03-29T08:10:50;99175.91;;;9.40;45.17
77079;BME280;66004;55.096;38.760;2024-03-29T08:13:15;99168.66;;;9.39;45.50
77079;BME280;66004;55.096;38.760;2024-03-29T08:15:45;99167.03;;;9.13;46.02
77079;BME280;66004;55.096;38.760;2024-03-29T08:18:11;99170.81;;;9.05;46.52
77079;BME280;66004;55.096;38.760;2024-03-29T08:20:36;99145.31;;;8.85;46.54
77079;BME280;66004;55.096;38.760;2024-03-29T08:23:02;99172.66;;;8.88;47.24
77079;BME280;66004;55.096;38.760;2024-03-29T08:25:27;99174.53;;;8.72;47.27
77079;BME280;66004;55.096;38.760;2024-03-29T08:27:53;99194.19;;;8.84;47.76
77079;BME280;66004;55.096;38.760;2024-03-29T08:30:27;99165.19;;;8.80;47.88
77079;BME280;66004;55.096;38.760;2024-03-29T08:32:57;99176.03;;;8.69;48.62
77079;BME280;66004;55.096;38.760;2024-03-29T08:35:25;99167.03;;;8.51;49.24
77079;BME280;66004;55.096;38.760;2024-03-29T08:37:50;99169.59;;;8.44;49.64
77079;BME280;66004;55.096;38.760;2024-03-29T08:40:16;99169.84;;;8.51;49.59
77079;BME280;66004;55.096;38.760;2024-03-29T08:42:42;99141.69;;;8.48;49.85
77079;BME280;66004;55.096;38.760;2024-03-29T08:45:07;99165.44;;;8.63;50.42
77079;BME280;66004;55.096;38.760;2024-03-29T08:47:34;99168.19;;;8.50;50.01
77079;BME280;66004;55.096;38.760;2024-03-29T08:49:59;99174.03;;;8.45;50.14
77079;BME280;66004;55.096;38.760;2024-03-29T08:52:25;99172.59;;;8.39;50.79
77079;BME280;66004;55.096;38.760;2024-03-29T08:54:50;99144.75;;;8.22;50.81
77079;BME280;66004;55.096;38.760;2024-03-29T08:57:15;99158.09;;;8.37;50.93
77079;BME280;66004;55.096;38.760;2024-03-29T08:59:41;99173.50;;;8.31;51.33
77079;BME280;66004;55.096;38.760;2024-03-29T09:02:07;99151.13;;;8.10;51.50
77079;BME280;66004;55.096;38.760;2024-03-29T09:04:32;99166.47;;;8.25;51.51
77079;BME280;66004;55.096;38.760;2024-03-29T09:07:00;99165.06;;;8.18;51.52
77079;BME280;66004;55.096;38.760;2024-03-29T09:09:27;99152.44;;;8.12;51.83
77079;BME280;66004;55.096;38.760;2024-03-29T09:11:53;99165.25;;;8.13;51.90
77079;BME280;66004;55.096;38.760;2024-03-29T09:14:20;99173.00;;;8.16;52.08
77079;BME280;66004;55.096;38.760;2024-03-29T09:16:45;99170.44;;;8.24;51.80
77079;BME280;66004;55.096;38.760;2024-03-29T09:19:13;99176.72;;;8.21;51.84
77079;BME280;66004;55.096;38.760;2024-03-29T09:21:39;99155.97;;;8.22;51.66
77079;BME280;66004;55.096;38.760;2024-03-29T09:24:05;99157.25;;;8.24;51.82
77079;BME280;66004;55.096;38.760;2024-03-29T09:26:31;99158.53;;;8.27;51.88
77079;BME280;66004;55.096;38.760;2024-03-29T09:28:56;99154.03;;;8.34;51.42
77079;BME280;66004;55.096;38.760;2024-03-29T09:31:22;99132.81;;;8.46;51.57
77079;BME280;66004;55.096;38.760;2024-03-29T09:33:47;99132.69;;;8.54;51.20
77079;BME280;66004;55.096;38.760;2024-03-29T09:36:19;99129.88;;;8.54;50.86
77079;BME280;66004;55.096;38.760;2024-03-29T09:38:45;99129.91;;;8.67;51.11
77079;BME280;66004;55.096;38.760;2024-03-29T09:41:15;99128.59;;;8.64;51.47
77079;BME280;66004;55.096;38.760;2024-03-29T09:43:46;99128.97;;;8.75;51.14
77079;BME280;66004;55.096;38.760;2024-03-29T09:46:15;99118.41;;;8.96;50.96
77079;BME280;66004;55.096;38.760;2024-03-29T09:48:43;99125.19;;;9.08;50.54
77079;BME280;66004;55.096;38.760;2024-03-29T09:51:11;99121.09;;;9.05;50.68
77079;BME280;66004;55.096;38.760;2024-03-29T09:53:41;99129.41;;;9.14;50.73
77079;BME280;66004;55.096;38.760;2024-03-29T09:56:07;99117.97;;;9.07;50.49
77079;BME280;66004;55.096;38.760;2024-03-29T09:58:34;99137.78;;;9.26;50.23
77079;BME280;66004;55.096;38.760;2024-03-29T10:01:04;99135.66;;;9.35;50.33
77079;BME280;66004;55.096;38.760;2024-03-29T10:03:31;99133.44;;;9.41;49.92
77079;BME280;66004;55.096;38.760;2024-03-29T10:05:58;99127.22;;;9.48;49.89
77079;BME280;66004;55.096;38.760;2024-03-29T10:08:27;99126.63;;;9.54;50.13
77079;BME280;66004;55.096;38.760;2024-03-29T10:10:55;99110.59;;;9.55;49.89
77079;BME280;66004;55.096;38.760;2024-03-29T10:13:21;99122.53;;;9.52;50.06
77079;BME280;66004;55.096;38.760;2024-03-29T10:15:48;99120.69;;;9.44;49.96
77079;BME280;66004;55.096;38.760;2024-03-29T10:18:15;99107.13;;;9.46;50.06
77079;BME280;66004;55.096;38.760;2024-03-29T10:20:41;99092.41;;;9.37;50.05
77079;BME280;66004;55.096;38.760;2024-03-29T10:23:06;99108.50;;;9.52;49.93
77079;BME280;66004;55.096;38.760;2024-03-29T10:25:33;99105.00;;;9.55;49.72
77079;BME280;66004;55.096;38.760;2024-03-29T10:28:00;99094.47;;;9.52;50.26
77079;BME280;66004;55.096;38.760;2024-03-29T10:30:29;99114.47;;;9.79;49.53
77079;BME280;66004;55.096;38.760;2024-03-29T10:32:56;99117.03;;;9.84;49.47
77079;BME280;66004;55.096;38.760;2024-03-29T10:35:21;99118.16;;;9.95;49.20
77079;BME280;66004;55.096;38.760;2024-03-29T10:37:47;99084.91;;;9.97;49.11
77079;BME280;66004;55.096;38.760;2024-03-29T10:40:13;99067.59;;;9.95;49.25
77079;BME280;66004;55.096;38.760;2024-03-29T10:42:43;99082.38;;;10.08;48.94
77079;BME280;66004;55.096;38.760;2024-03-29T10:45:10;99081.03;;;10.18;48.69
77079;BME280;66004;55.096;38.760;2024-03-29T10:47:36;99080.84;;;10.10;49.03
77079;BME280;66004;55.096;38.760;2024-03-29T10:50:01;99101.63;;;10.38;48.72
77079;BME280;66004;55.096;38.760;2024-03-29T10:52:30;99083.75;;;10.30;48.71
77079;BME280;66004;55.096;38.760;2024-03-29T10:54:56;99107.53;;;10.80;48.27
77079;BME280;66004;55.096;38.760;2024-03-29T10:57:26;99098.09;;;11.24;47.32
77079;BME280;66004;55.096;38.760;2024-03-29T11:00:16;99106.31;;;11.68;46.80
77079;BME280;66004;55.096;38.760;2024-03-29T11:02:50;99110.81;;;11.92;46.30
77079;BME280;66004;55.096;38.760;2024-03-29T11:05:17;99080.44;;;11.62;46.32
77079;BME280;66004;55.096;38.760;2024-03-29T11:07:43;99090.34;;;11.37;47.05
77079;BME280;66004;55.096;38.760;2024-03-29T11:10:17;99083.66;;;11.25;47.04
77079;BME280;66004;55.096;38.760;2024-03-29T11:12:54;99099.66;;;11.21;47.63
77079;BME280;66004;55.096;38.760;2024-03-29T11:15:28;99080.38;;;11.23;47.75
77079;BME280;66004;55.096;38.760;2024-03-29T11:17:55;99091.22;;;11.41;47.25
77079;BME280;66004;55.096;38.760;2024-03-29T11:20:25;99084.78;;;11.21;47.45
77079;BME280;66004;55.096;38.760;2024-03-29T11:23:04;99072.03;;;10.91;47.53
77079;BME280;66004;55.096;38.760;2024-03-29T11:25:42;99075.25;;;10.74;47.83
77079;BME280;66004;55.096;38.760;2024-03-29T11:28:09;99060.38;;;10.58;48.07
77079;BME280;66004;55.096;38.760;2024-03-29T11:30:48;99073.72;;;10.61;48.38
77079;BME280;66004;55.096;38.760;2024-03-29T11:33:33;99061.28;;;10.62;48.07
77079;BME280;66004;55.096;38.760;2024-03-29T11:36:06;99055.19;;;10.60;48.31
77079;BME280;66004;55.096;38.760;2024-03-29T11:38:34;99064.63;;;10.83;47.53
77079;BME280;66004;55.096;38.760;2024-03-29T11:41:07;99052.25;;;10.88;47.82
77079;BME280;66004;55.096;38.760;2024-03-29T11:43:35;99063.00;;;11.02;47.53
77079;BME280;66004;55.096;38.760;2024-03-29T11:46:04;99064.97;;;11.17;47.18
77079;BME280;66004;55.096;38.760;2024-03-29T11:48:30;99061.84;;;11.22;47.25
77079;BME280;66004;55.096;38.760;2024-03-29T11:51:00;99056.69;;;11.44;46.94
77079;BME280;66004;55.096;38.760;2024-03-29T11:53:26;99046.06;;;11.76;46.31
77079;BME280;66004;55.096;38.760;2024-03-29T11:56:02;99027.47;;;12.14;45.65
77079;BME280;66004;55.096;38.760;2024-03-29T11:58:33;99022.31;;;12.43;45.34
77079;BME280;66004;55.096;38.760;2024-03-29T12:01:00;99038.25;;;12.81;45.18
77079;BME280;66004;55.096;38.760;2024-03-29T12:03:27;99039.72;;;12.98;44.72
77079;BME280;66004;55.096;38.760;2024-03-29T12:05:54;99043.72;;;12.97;45.03
77079;BME280;66004;55.096;38.760;2024-03-29T12:08:28;99035.13;;;12.87;44.83
77079;BME280;66004;55.096;38.760;2024-03-29T12:10:53;99044.00;;;12.89;44.92
77079;BME280;66004;55.096;38.760;2024-03-29T12:13:19;99040.66;;;12.79;45.38
77079;BME280;66004;55.096;38.760;2024-03-29T12:15:45;99044.28;;;12.80;45.22
77079;BME280;66004;55.096;38.760;2024-03-29T12:18:11;99044.66;;;12.78;45.22
77079;BME280;66004;55.096;38.760;2024-03-29T12:20:38;99045.09;;;12.80;45.06
77079;BME280;66004;55.096;38.760;2024-03-29T12:23:08;99034.13;;;12.75;45.27
77079;BME280;66004;55.096;38.760;2024-03-29T12:25:37;99021.63;;;12.50;45.39
77079;BME280;66004;55.096;38.760;2024-03-29T12:28:03;99045.25;;;12.64;45.29
77079;BME280;66004;55.096;38.760;2024-03-29T12:30:29;99052.56;;;12.69;44.97
77079;BME280;66004;55.096;38.760;2024-03-29T12:33:02;99044.09;;;12.69;44.90
77079;BME280;66004;55.096;38.760;2024-03-29T12:35:28;99037.72;;;12.72;44.79
77079;BME280;66004;55.096;38.760;2024-03-29T12:37:59;99043.47;;;12.79;44.94
77079;BME280;66004;55.096;38.760;2024-03-29T12:40:26;99028.63;;;12.86;44.51
77079;BME280;66004;55.096;38.760;2024-03-29T12:42:53;99037.69;;;12.99;44.75
77079;BME280;66004;55.096;38.760;2024-03-29T12:45:19;99035.19;;;12.94;44.43
77079;BME280;66004;55.096;38.760;2024-03-29T12:47:49;99028.69;;;12.90;44.69
77079;BME280;66004;55.096;38.760;2024-03-29T12:50:31;99032.06;;;12.99;45.03
77079;BME280;66004;55.096;38.760;2024-03-29T12:52:59;99039.34;;;13.00;44.97
77079;BME280;66004;55.096;38.760;2024-03-29T12:55:25;99033.78;;;13.07;44.91